Time;durP1;ratioP1;P1;durP2;ratioP2;P2;SDS_P1;SDS_P2;PMS_P1;PMS_P2;Temp;Humidity;BMP_temperature;BMP_pressure;BME280_temperature;BME280_humidity;BME280_pressure;Samples;Min_cycle;Max_cycle;Signal;HPM_P1;HPM_P2
2024/04/19 00:02:02;;;;;;;;;;;;;;;22.29;47.55;94489.50;5413794;26;6880;-61
2024/04/19 00:04:29;;;;;;;;;;;;;;;22.28;47.44;94485.25;5439758;26;7584;-61
2024/04/19 00:06:59;;;;;;;;;;;;;;;22.24;47.37;94490.97;5446866;26;7698;-61
2024/04/19 00:09:34;;;;;;;;;;;;;;;22.27;47.42;94494.72;5449807;26;7717;-61
2024/04/19 00:12:06;;;;;;;;;;;;;;;22.27;47.09;94487.22;5448428;26;7409;-61
2024/04/19 00:14:51;;;;;;;;;;;;;;;22.23;47.04;94486.72;5449435;26;7050;-61
2024/04/19 00:17:19;;;;;;;;;;;;;;;22.27;47.46;94484.50;5445339;26;9840;-61
2024/04/19 00:19:45;;;;;;;;;;;;;;;22.20;47.17;94471.25;5411675;26;7065;-60
2024/04/19 00:22:13;;;;;;;;;;;;;;;22.24;46.79;94471.78;5418061;26;8188;-60
2024/04/19 00:24:39;;;;;;;;;;;;;;;22.21;47.00;94477.47;5425104;26;8033;-59
2024/04/19 00:27:05;;;;;;;;;;;;;;;22.17;46.92;94466.00;5448804;26;9729;-59
2024/04/19 00:29:44;;;;;;;;;;;;;;;22.22;47.67;94478.97;5448026;26;7061;-59
2024/04/19 00:32:12;;;;;;;;;;;;;;;22.23;47.62;94483.22;5436640;26;7971;-59
2024/04/19 00:34:41;;;;;;;;;;;;;;;22.23;47.30;94483.22;5434658;26;7247;-59
2024/04/19 00:37:08;;;;;;;;;;;;;;;22.20;47.53;94476.75;5416959;26;7688;-59
2024/04/19 00:39:34;;;;;;;;;;;;;;;22.24;47.33;94484.72;5449076;26;7163;-59
2024/04/19 00:42:02;;;;;;;;;;;;;;;22.29;46.85;94489.50;5448462;26;7198;-59
2024/04/19 00:44:55;;;;;;;;;;;;;;;22.28;47.44;94483.28;5467153;26;7456;-59
2024/04/19 00:47:28;;;;;;;;;;;;;;;22.23;46.95;94470.28;5337813;26;7650;-59
2024/04/19 00:49:56;;;;;;;;;;;;;;;22.23;46.85;94469.50;5334028;26;8556;-59
2024/04/19 00:52:39;;;;;;;;;;;;;;;22.26;47.17;94474.03;5325936;26;7195;-59
2024/04/19 00:55:08;;;;;;;;;;;;;;;22.23;47.00;94480.47;5338845;26;7324;-59
2024/04/19 00:57:55;;;;;;;;;;;;;;;22.24;47.05;94473.78;5334450;26;7359;-59
2024/04/19 01:00:25;;;;;;;;;;;;;;;22.25;47.12;94472.53;5302873;26;7247;-59
2024/04/19 01:03:40;;;;;;;;;;;;;;;22.27;46.49;94470.06;5339363;26;7998;-59
2024/04/19 01:06:37;;;;;;;;;;;;;;;22.21;46.83;94469.25;5339154;26;7378;-59
2024/04/19 01:09:05;;;;;;;;;;;;;;;22.17;47.24;94461.25;5269189;27;7030;-59
2024/04/19 01:12:18;;;;;;;;;;;;;;;22.23;47.34;94469.50;5271378;27;7593;-59
2024/04/19 01:14:45;;;;;;;;;;;;;;;22.16;46.94;94453.53;5191703;27;7697;-59
2024/04/19 01:17:11;;;;;;;;;;;;;;;22.21;47.07;94455.56;5174140;27;9161;-59
2024/04/19 01:19:38;;;;;;;;;;;;;;;22.18;47.04;94460.03;5201680;27;7294;-59
2024/04/19 01:22:14;;;;;;;;;;;;;;;22.16;46.91;94448.78;5172359;27;7239;-59
2024/04/19 01:24:52;;;;;;;;;;;;;;;22.22;47.29;94460.56;5226722;27;7694;-59
2024/04/19 01:27:37;;;;;;;;;;;;;;;22.24;47.48;94460.84;5225624;27;7330;-59
2024/04/19 01:30:06;;;;;;;;;;;;;;;22.20;47.11;94448.59;5237654;27;9125;-59
2024/04/19 01:32:37;;;;;;;;;;;;;;;22.21;47.02;94450.06;5237428;27;7280;-59
2024/04/19 01:35:04;;;;;;;;;;;;;;;22.20;47.28;94452.09;5237478;27;7345;-57
2024/04/19 01:37:33;;;;;;;;;;;;;;;22.14;47.23;94434.09;5209587;27;7024;-57
2024/04/19 01:39:59;;;;;;;;;;;;;;;22.14;46.95;94431.38;5229918;27;7063;-57
2024/04/19 01:43:00;;;;;;;;;;;;;;;22.22;46.88;94437.91;5236252;27;7148;-57
2024/04/19 01:45:51;;;;;;;;;;;;;;;22.22;47.09;94435.16;5139218;27;7611;-57
2024/04/19 01:48:51;;;;;;;;;;;;;;;22.19;47.19;94436.13;5148078;27;9017;-57
2024/04/19 01:51:29;;;;;;;;;;;;;;;22.14;46.93;94425.88;5158922;27;9631;-57
2024/04/19 01:54:16;;;;;;;;;;;;;;;22.11;46.91;94416.66;5288874;27;7106;-57
2024/04/19 01:56:58;;;;;;;;;;;;;;;22.22;47.50;94429.66;5265867;27;7330;-57
2024/04/19 01:59:48;;;;;;;;;;;;;;;22.23;46.86;94437.41;5268393;27;7242;-57
2024/04/19 02:02:41;;;;;;;;;;;;;;;22.24;46.70;94429.94;5265415;27;7138;-57
2024/04/19 02:05:17;;;;;;;;;;;;;;;22.19;46.84;94425.16;5270725;27;7126;-57
2024/04/19 02:07:56;;;;;;;;;;;;;;;22.20;46.97;94421.19;5270710;27;7688;-57
2024/04/19 02:10:24;;;;;;;;;;;;;;;22.18;47.32;94416.22;5266934;27;7322;-57
2024/04/19 02:12:52;;;;;;;;;;;;;;;22.13;47.46;94407.94;5270399;27;8510;-57
2024/04/19 02:15:30;;;;;;;;;;;;;;;22.18;46.89;94415.44;5274213;27;7319;-57
2024/04/19 02:17:57;;;;;;;;;;;;;;;22.17;47.10;94408.47;5254192;27;9959;-57
2024/04/19 02:20:37;;;;;;;;;;;;;;;22.17;46.76;94405.72;5298963;26;7716;-57
2024/04/19 02:23:36;;;;;;;;;;;;;;;22.19;46.85;94405.97;5436033;26;7325;-57
2024/04/19 02:26:32;;;;;;;;;;;;;;;22.19;46.39;94398.53;5338501;26;7054;-57
2024/04/19 02:32:36;;;;;;;;;;;;;;;22.17;47.37;94408.47;5324318;26;7347;-57
2024/04/19 02:35:02;;;;;;;;;;;;;;;22.13;46.69;94403.22;5341268;26;7254;-57
2024/04/19 02:37:31;;;;;;;;;;;;;;;22.16;46.77;94402.22;5342087;26;7975;-57
2024/04/19 02:39:59;;;;;;;;;;;;;;;22.09;47.02;94386.25;5313317;26;7734;-57
2024/04/19 02:42:50;;;;;;;;;;;;;;;22.18;47.12;94399.03;5342083;26;7251;-57
2024/04/19 02:45:46;;;;;;;;;;;;;;;22.15;47.11;94400.75;5318873;26;7308;-56
2024/04/19 02:48:23;;;;;;;;;;;;;;;22.14;47.29;94404.69;5276142;27;7397;-56
2024/04/19 02:51:05;;;;;;;;;;;;;;;22.03;47.23;94371.03;5277941;27;7170;-56
2024/04/19 02:54:03;;;;;;;;;;;;;;;22.20;46.41;94388.31;5273402;27;7233;-57
2024/04/19 02:56:46;;;;;;;;;;;;;;;22.17;46.70;94375.59;5298059;27;7564;-56
2024/04/19 02:59:44;;;;;;;;;;;;;;;22.18;46.91;94372.38;5306839;26;8331;-56
2024/04/19 03:02:28;;;;;;;;;;;;;;;22.11;46.81;94361.13;5310178;26;7164;-56
2024/04/19 03:05:07;;;;;;;;;;;;;;;22.12;47.15;94359.88;5365022;26;7352;-56
2024/04/19 03:07:42;;;;;;;;;;;;;;;22.05;46.66;94355.63;5328084;26;8240;-57
2024/04/19 03:10:09;;;;;;;;;;;;;;;22.16;46.97;94354.94;5363060;26;7493;-56
2024/04/19 03:12:57;;;;;;;;;;;;;;;22.16;46.52;94354.94;5360306;26;7114;-56
2024/04/19 03:15:28;;;;;;;;;;;;;;;22.12;47.09;94351.66;5396262;26;7117;-57
2024/04/19 03:17:57;;;;;;;;;;;;;;;22.18;46.76;94346.97;5411486;26;8961;-57
2024/04/19 03:21:04;;;;;;;;;;;;;;;22.18;46.98;94358.69;5390599;26;9349;-56
2024/04/19 03:23:34;;;;;;;;;;;;;;;22.12;46.09;94338.72;5347200;26;7372;-57
2024/04/19 03:26:06;;;;;;;;;;;;;;;22.20;46.45;94339.78;5444438;26;7379;-57
2024/04/19 03:28:53;;;;;;;;;;;;;;;22.10;46.21;94330.22;5447305;26;9222;-56
2024/04/19 03:31:21;;;;;;;;;;;;;;;22.13;46.62;94333.97;5445052;26;7036;-56
2024/04/19 03:33:49;;;;;;;;;;;;;;;22.13;47.16;94328.50;5467214;26;9129;-56
2024/04/19 03:36:16;;;;;;;;;;;;;;;22.18;46.60;94336.00;5448852;26;7717;-57
2024/04/19 03:38:47;;;;;;;;;;;;;;;22.12;46.70;94333.22;5418166;26;7273;-57
2024/04/19 03:41:16;;;;;;;;;;;;;;;22.10;46.79;94330.22;5414007;26;8987;-57
2024/04/19 03:46:50;;;;;;;;;;;;;;;22.16;46.27;94333.75;5457252;26;7076;-56
2024/04/19 03:49:17;;;;;;;;;;;;;;;22.15;46.75;94336.97;5448882;26;7400;-56
2024/04/19 03:51:45;;;;;;;;;;;;;;;22.16;46.79;94333.00;5449007;26;7066;-57
2024/04/19 03:54:30;;;;;;;;;;;;;;;22.12;46.79;94321.53;5418210;26;7056;-56
2024/04/19 03:57:20;;;;;;;;;;;;;;;22.15;46.41;94337.75;5444745;26;7138;-56
2024/04/19 04:00:17;;;;;;;;;;;;;;;22.19;46.88;94348.47;5426691;26;7551;-56
2024/04/19 04:03:02;;;;;;;;;;;;;;;22.17;46.50;94338.00;5334555;26;6965;-57
2024/04/19 04:05:59;;;;;;;;;;;;;;;22.21;46.84;94340.50;5354759;26;7982;-61
2024/04/19 04:09:00;;;;;;;;;;;;;;;22.20;46.87;94345.25;5344044;26;7408;-61
2024/04/19 04:11:33;;;;;;;;;;;;;;;22.17;46.82;94342.72;5238361;27;7954;-61
2024/04/19 04:13:59;;;;;;;;;;;;;;;22.20;46.08;94344.50;5236653;27;7234;-61
2024/04/19 04:16:42;;;;;;;;;;;;;;;22.18;46.82;94342.25;5233126;27;9174;-61
2024/04/19 04:19:14;;;;;;;;;;;;;;;22.16;46.33;94338.50;5237894;27;7372;-61
2024/04/19 04:21:59;;;;;;;;;;;;;;;22.16;46.62;94339.22;5238580;27;9610;-61
2024/04/19 04:24:44;;;;;;;;;;;;;;;22.15;46.80;94335.00;5238470;27;8888;-61
2024/04/19 04:27:20;;;;;;;;;;;;;;;22.09;46.64;94344.41;5207780;27;7470;-61
2024/04/19 04:29:49;;;;;;;;;;;;;;;22.15;46.57;94347.94;5210655;27;9638;-61
2024/04/19 04:32:16;;;;;;;;;;;;;;;22.16;46.61;94349.44;5235172;27;7430;-61
2024/04/19 04:34:44;;;;;;;;;;;;;;;22.20;46.42;94353.47;5224011;27;7175;-61
2024/04/19 04:37:10;;;;;;;;;;;;;;;22.27;47.16;94361.22;5193728;27;7070;-61
2024/04/19 04:39:36;;;;;;;;;;;;;;;22.26;47.06;94359.72;5267535;27;9357;-61
2024/04/19 04:42:04;;;;;;;;;;;;;;;22.30;46.80;94354.00;5319513;26;7010;-73
2024/04/19 04:44:35;;;;;;;;;;;;;;;22.23;46.54;94351.72;5301460;26;7326;-66
2024/04/19 04:47:10;;;;;;;;;;;;;;;22.33;46.11;94370.22;5357833;26;7379;-63
2024/04/19 04:49:36;;;;;;;;;;;;;;;22.37;46.57;94364.50;5440428;26;7090;-65
2024/04/19 04:52:06;;;;;;;;;;;;;;;22.29;46.94;94358.00;5464258;26;9039;-65
2024/04/19 04:54:34;;;;;;;;;;;;;;;22.40;46.71;94377.25;5441115;26;7241;-65
2024/04/19 04:57:30;;;;;;;;;;;;;;;22.43;47.34;94371.53;5469823;26;7608;-65
2024/04/19 05:00:43;;;;;;;;;;;;;;;22.46;46.82;94372.53;5374493;26;7711;-64
2024/04/19 05:03:18;;;;;;;;;;;;;;;22.40;47.00;94360.81;5346149;26;7936;-60
2024/04/19 05:05:46;;;;;;;;;;;;;;;22.43;47.59;94366.03;5362381;26;9037;-61
2024/04/19 05:08:14;;;;;;;;;;;;;;;22.47;47.18;94372.03;5373794;26;7058;-61
2024/04/19 05:10:57;;;;;;;;;;;;;;;22.45;47.45;94373.75;5374198;26;7318;-61
2024/04/19 05:13:32;;;;;;;;;;;;;;;22.50;47.38;94373.81;5370580;26;8491;-63
2024/04/19 05:16:02;;;;;;;;;;;;;;;22.49;47.69;94374.28;5368231;26;7788;-63
2024/04/19 05:18:43;;;;;;;;;;;;;;;22.55;47.62;94375.09;5402655;26;8611;-64
2024/04/19 05:21:46;;;;;;;;;;;;;;;22.58;47.52;94378.81;5360084;26;7024;-64
2024/04/19 05:24:17;;;;;;;;;;;;;;;22.61;47.79;94375.88;5354458;26;7079;-65
2024/04/19 05:27:03;;;;;;;;;;;;;;;22.56;47.48;94362.09;5374557;26;7412;-64
2024/04/19 05:29:46;;;;;;;;;;;;;;;22.75;46.72;94377.69;5339544;26;7400;-64
2024/04/19 05:32:13;;;;;;;;;;;;;;;22.64;45.18;94377.63;5366172;26;7277;-63
2024/04/19 05:34:42;;;;;;;;;;;;;;;22.52;43.81;94376.06;5349712;26;7971;-65
2024/04/19 05:37:08;;;;;;;;;;;;;;;22.42;45.65;94372.03;5408105;26;9551;-65
2024/04/19 05:39:34;;;;;;;;;;;;;;;22.39;49.78;94376.50;5448132;26;7111;-64
2024/04/19 05:42:02;;;;;;;;;;;;;;;22.73;51.17;94382.91;5417808;26;7588;-65
2024/04/19 05:44:36;;;;;;;;;;;;;;;23.01;53.34;94377.53;5444671;26;9843;-64
2024/04/19 05:47:13;;;;;;;;;;;;;;;23.27;51.89;94378.84;5448191;26;7788;-65
2024/04/19 05:49:43;;;;;;;;;;;;;;;23.46;50.27;94379.19;5448042;26;9824;-65
2024/04/19 05:52:45;;;;;;;;;;;;;;;23.68;50.12;94378.44;5447643;26;7026;-65
2024/04/19 05:55:17;;;;;;;;;;;;;;;23.71;47.52;94364.47;5297693;27;8433;-65
2024/04/19 05:57:44;;;;;;;;;;;;;;;23.46;47.01;94361.97;5284457;26;6996;-64
2024/04/19 06:00:15;;;;;;;;;;;;;;;23.28;46.46;94365.88;5302709;27;7045;-62
2024/04/19 06:03:10;;;;;;;;;;;;;;;23.29;45.75;94378.38;5259414;27;9331;-62
2024/04/19 06:05:43;;;;;;;;;;;;;;;23.12;45.30;94374.81;5273818;27;7252;-64
2024/04/19 06:08:18;;;;;;;;;;;;;;;23.11;44.99;94382.31;5273747;27;9606;-64
2024/04/19 06:10:44;;;;;;;;;;;;;;;22.99;44.10;94385.50;5256149;27;7375;-64
2024/04/19 06:13:19;;;;;;;;;;;;;;;22.76;44.94;94381.94;5272453;27;8063;-63
2024/04/19 06:16:02;;;;;;;;;;;;;;;22.66;45.18;94388.13;5273137;27;7248;-59
2024/04/19 06:18:32;;;;;;;;;;;;;;;22.57;45.36;94393.78;5270064;27;8944;-58
2024/04/19 06:21:37;;;;;;;;;;;;;;;22.60;45.38;94404.53;5252231;27;7160;-59
2024/04/19 06:24:23;;;;;;;;;;;;;;;22.49;45.64;94401.69;5273511;27;7384;-59
2024/04/19 06:27:12;;;;;;;;;;;;;;;22.57;45.19;94413.72;5265106;27;7057;-59
2024/04/19 06:29:52;;;;;;;;;;;;;;;22.49;45.89;94391.47;5377427;26;7360;-58
2024/04/19 06:32:30;;;;;;;;;;;;;;;22.54;45.81;94411.94;5358375;26;6977;-58
2024/04/19 06:34:56;;;;;;;;;;;;;;;22.53;45.87;94415.94;5412098;26;8607;-58
2024/04/19 06:37:22;;;;;;;;;;;;;;;22.42;46.32;94394.66;5412079;26;7417;-58
2024/04/19 06:39:50;;;;;;;;;;;;;;;22.47;46.11;94412.38;5405577;26;7249;-58
2024/04/19 06:42:16;;;;;;;;;;;;;;;22.52;46.16;94403.47;5434447;26;7129;-58
2024/04/19 06:44:54;;;;;;;;;;;;;;;22.44;46.22;94392.19;5450735;26;7628;-59
2024/04/19 06:47:36;;;;;;;;;;;;;;;22.55;46.52;94410.72;5450567;26;7310;-58
2024/04/19 06:50:24;;;;;;;;;;;;;;;22.50;45.74;94398.47;5449731;26;7145;-58
2024/04/19 06:52:51;;;;;;;;;;;;;;;22.54;45.98;94398.25;5450247;26;7559;-58
2024/04/19 06:55:28;;;;;;;;;;;;;;;22.50;45.56;94395.72;5449566;26;7268;-58
2024/04/19 06:57:57;;;;;;;;;;;;;;;22.48;45.73;94398.22;5418567;26;7516;-59
2024/04/19 07:00:25;;;;;;;;;;;;;;;22.50;45.91;94400.47;5450328;26;7362;-59
2024/04/19 07:03:08;;;;;;;;;;;;;;;22.48;45.37;94398.22;5449654;26;6979;-58
2024/04/19 07:05:49;;;;;;;;;;;;;;;22.52;45.49;94397.97;5443674;26;7397;-58
2024/04/19 07:08:35;;;;;;;;;;;;;;;22.53;45.74;94404.97;5446062;26;8626;-58
2024/04/19 07:11:05;;;;;;;;;;;;;;;22.44;45.80;94385.97;5428914;26;7406;-57
2024/04/19 07:13:36;;;;;;;;;;;;;;;22.50;45.83;94389.50;5451806;26;9389;-58
2024/04/19 07:16:03;;;;;;;;;;;;;;;22.45;45.68;94379.25;5417613;26;7074;-59
2024/04/19 07:18:34;;;;;;;;;;;;;;;22.55;46.15;94388.03;5425886;26;7283;-58
2024/04/19 07:21:39;;;;;;;;;;;;;;;22.53;45.95;94383.03;5454129;26;6949;-58
2024/04/19 07:24:07;;;;;;;;;;;;;;;22.50;46.19;94364.84;5444267;26;9156;-62
2024/04/19 07:26:59;;;;;;;;;;;;;;;22.50;46.18;94373.06;5442495;26;9809;-62
2024/04/19 07:29:25;;;;;;;;;;;;;;;22.47;46.00;94352.09;5408798;26;8500;-63
2024/04/19 07:32:07;;;;;;;;;;;;;;;22.54;45.76;94362.59;5384585;26;7345;-62
2024/04/19 07:34:33;;;;;;;;;;;;;;;22.52;45.71;94359.59;5380211;26;9020;-62
2024/04/19 07:37:01;;;;;;;;;;;;;;;22.46;45.61;94348.63;5374018;26;7866;-62
2024/04/19 07:39:28;;;;;;;;;;;;;;;22.46;46.03;94342.38;5375853;26;9462;-62
2024/04/19 07:41:56;;;;;;;;;;;;;;;22.48;45.74;94337.16;5404709;26;7305;-62
2024/04/19 07:44:36;;;;;;;;;;;;;;;22.48;45.93;94326.97;5391519;26;7330;-62
2024/04/19 07:47:21;;;;;;;;;;;;;;;22.55;46.35;94336.72;5411107;26;9534;-62
2024/04/19 07:49:48;;;;;;;;;;;;;;;22.45;45.84;94322.44;5375528;26;7291;-62
2024/04/19 07:52:16;;;;;;;;;;;;;;;22.49;45.89;94327.69;5402782;26;7161;-62
2024/04/19 07:54:47;;;;;;;;;;;;;;;22.48;46.21;94321.47;5381339;26;7191;-62
2024/04/19 07:57:42;;;;;;;;;;;;;;;22.58;46.26;94337.69;5391354;26;8950;-62
2024/04/19 08:00:24;;;;;;;;;;;;;;;22.52;46.61;94326.72;5374317;26;6958;-62
2024/04/19 08:03:16;;;;;;;;;;;;;;;22.62;46.07;94338.25;5356369;26;7387;-62
2024/04/19 08:05:50;;;;;;;;;;;;;;;22.55;46.07;94323.00;5371665;26;8018;-62
2024/04/19 08:08:27;;;;;;;;;;;;;;;22.50;46.19;94315.50;5425685;26;7262;-62
2024/04/19 08:10:54;;;;;;;;;;;;;;;22.59;46.42;94322.75;5412706;26;7041;-62
2024/04/19 08:13:26;;;;;;;;;;;;;;;22.49;46.43;94314.75;5409988;26;7298;-62
2024/04/19 08:16:01;;;;;;;;;;;;;;;22.63;46.56;94331.53;5409904;26;8948;-62
2024/04/19 08:18:27;;;;;;;;;;;;;;;22.58;46.94;94322.00;5408504;26;7011;-61
2024/04/19 08:21:33;;;;;;;;;;;;;;;22.66;46.28;94336.03;5411435;26;7149;-62
2024/04/19 08:24:02;;;;;;;;;;;;;;;22.64;46.67;94333.75;5388806;26;7605;-62
2024/04/19 08:26:51;;;;;;;;;;;;;;;22.65;46.65;94324.31;5380939;26;7133;-62
2024/04/19 08:29:19;;;;;;;;;;;;;;;22.67;47.00;94332.03;5382698;26;7610;-62
2024/04/19 08:32:13;;;;;;;;;;;;;;;22.68;47.10;94339.78;5445104;26;9084;-62
2024/04/19 08:34:39;;;;;;;;;;;;;;;22.67;46.99;94332.78;5428996;26;7667;-60
2024/04/19 08:37:06;;;;;;;;;;;;;;;22.62;46.59;94325.28;5424717;26;7396;-60
2024/04/19 08:39:32;;;;;;;;;;;;;;;22.62;46.90;94324.56;5447609;26;7093;-61
2024/04/19 08:42:04;;;;;;;;;;;;;;;22.65;47.37;94332.53;5445868;26;7107;-60
2024/04/19 08:44:35;;;;;;;;;;;;;;;22.57;46.77;94317.78;5466026;26;7184;-60
2024/04/19 08:47:16;;;;;;;;;;;;;;;22.60;46.83;94310.59;5417592;26;7610;-60
2024/04/19 08:49:45;;;;;;;;;;;;;;;22.50;46.90;94299.06;5446856;26;7408;-61
2024/04/19 08:52:16;;;;;;;;;;;;;;;22.64;47.18;94311.09;5417133;26;7629;-61
2024/04/19 08:55:07;;;;;;;;;;;;;;;22.55;47.24;94303.81;5452114;26;7004;-60
2024/04/19 08:57:50;;;;;;;;;;;;;;;22.62;46.84;94311.56;5448454;26;7156;-60
2024/04/19 09:00:16;;;;;;;;;;;;;;;22.56;47.05;94307.28;5447142;26;9688;-59
2024/04/19 09:03:01;;;;;;;;;;;;;;;22.60;47.05;94302.38;5416272;26;7264;-60
2024/04/19 09:05:28;;;;;;;;;;;;;;;22.60;47.34;94297.63;5442383;26;7074;-60
2024/04/19 09:07:55;;;;;;;;;;;;;;;22.67;47.17;94297.16;5447838;26;9621;-60
2024/04/19 09:10:27;;;;;;;;;;;;;;;22.71;47.19;94292.19;5447428;26;7078;-60
2024/04/19 09:12:59;;;;;;;;;;;;;;;22.66;47.05;94276.47;5466853;26;7241;-60
2024/04/19 09:15:47;;;;;;;;;;;;;;;22.71;46.39;94283.94;5446817;26;7144;-65
2024/04/19 09:18:30;;;;;;;;;;;;;;;22.60;46.86;94261.97;5398345;26;7067;-62
2024/04/19 09:20:58;;;;;;;;;;;;;;;22.61;46.70;94257.25;5442327;26;7017;-62
2024/04/19 09:23:32;;;;;;;;;;;;;;;22.67;46.98;94275.22;5397428;26;7447;-62
2024/04/19 09:26:07;;;;;;;;;;;;;;;22.62;46.94;94264.25;5436120;26;7019;-62
2024/04/19 09:28:55;;;;;;;;;;;;;;;22.67;47.10;94272.47;5444387;26;6983;-62
2024/04/19 09:31:23;;;;;;;;;;;;;;;22.67;46.97;94269.72;5445429;26;7077;-62
2024/04/19 09:34:05;;;;;;;;;;;;;;;22.63;47.17;94261.00;5447314;26;7366;-62
2024/04/19 09:36:34;;;;;;;;;;;;;;;22.69;46.77;94270.00;5444105;26;7600;-64
2024/04/19 09:39:01;;;;;;;;;;;;;;;22.73;47.80;94265.00;5444446;26;9508;-65
2024/04/19 09:41:30;;;;;;;;;;;;;;;22.79;48.84;94259.56;5446581;26;7396;-65
2024/04/19 09:44:01;;;;;;;;;;;;;;;23.00;50.24;94269.06;5450102;26;7335;-63
2024/04/19 09:46:49;;;;;;;;;;;;;;;23.26;50.05;94264.09;5444682;26;7346;-61
2024/04/19 09:49:33;;;;;;;;;;;;;;;23.48;49.52;94269.63;5437723;26;7286;-63
2024/04/19 09:52:19;;;;;;;;;;;;;;;23.64;45.69;94262.63;5447036;26;7372;-63
2024/04/19 09:55:28;;;;;;;;;;;;;;;23.73;44.66;94252.13;5446521;26;6989;-63
2024/04/19 09:58:16;;;;;;;;;;;;;;;23.52;45.49;94233.69;5447999;26;7408;-63
2024/04/19 10:01:04;;;;;;;;;;;;;;;23.20;45.25;94236.69;5397216;26;9012;-63
2024/04/19 10:03:32;;;;;;;;;;;;;;;23.02;45.88;94223.44;5418938;26;9081;-63
2024/04/19 10:06:31;;;;;;;;;;;;;;;22.99;46.30;94229.91;5409817;26;9138;-63
2024/04/19 10:08:59;;;;;;;;;;;;;;;22.92;46.67;94215.94;5439127;26;10002;-63
2024/04/19 10:12:21;;;;;;;;;;;;;;;22.90;46.44;94216.44;5437028;26;8061;-63
2024/04/19 10:14:58;;;;;;;;;;;;;;;22.88;46.71;94201.75;5452229;26;7510;-63
2024/04/19 10:17:27;;;;;;;;;;;;;;;22.85;46.53;94203.47;5419676;26;7024;-63
2024/04/19 10:19:59;;;;;;;;;;;;;;;22.82;46.85;94195.47;5430983;26;7567;-63
2024/04/19 10:22:29;;;;;;;;;;;;;;;22.80;47.00;94187.00;5428891;26;7967;-63
2024/04/19 10:25:09;;;;;;;;;;;;;;;22.76;46.96;94181.03;5439635;26;8942;-62
2024/04/19 10:27:50;;;;;;;;;;;;;;;22.82;47.01;94174.31;5418933;26;7113;-63
2024/04/19 10:30:18;;;;;;;;;;;;;;;22.76;47.01;94167.31;5445037;26;7312;-62
2024/04/19 10:32:54;;;;;;;;;;;;;;;22.75;47.66;94168.56;5446794;26;7695;-62
2024/04/19 10:35:48;;;;;;;;;;;;;;;22.86;47.12;94169.31;5446507;26;8548;-62
2024/04/19 10:38:14;;;;;;;;;;;;;;;22.84;47.54;94163.59;5413023;26;7255;-62
2024/04/19 10:40:42;;;;;;;;;;;;;;;22.82;47.37;94140.63;5445833;26;7281;-62
2024/04/19 10:43:29;;;;;;;;;;;;;;;22.87;47.51;94148.88;5433772;26;7053;-62
2024/04/19 10:46:07;;;;;;;;;;;;;;;22.84;47.12;94140.88;5444205;26;7114;-62
2024/04/19 10:48:42;;;;;;;;;;;;;;;22.87;47.13;94137.91;5443132;26;7127;-61
2024/04/19 10:51:20;;;;;;;;;;;;;;;22.89;46.96;94129.94;5447073;26;7083;-61
2024/04/19 10:53:48;;;;;;;;;;;;;;;22.92;46.69;94130.94;5417463;26;7089;-58
2024/04/19 10:56:32;;;;;;;;;;;;;;;22.87;46.78;94112.47;5447427;26;7646;-58
2024/04/19 10:58:59;;;;;;;;;;;;;;;22.95;46.76;94119.72;5451194;26;7674;-57
2024/04/19 11:01:57;;;;;;;;;;;;;;;22.96;47.05;94110.25;5446407;26;7062;-57
2024/04/19 11:04:24;;;;;;;;;;;;;;;22.85;46.49;94107.50;5375038;26;7349;-57
2024/04/19 11:06:57;;;;;;;;;;;;;;;22.90;46.93;94106.00;5347451;26;7688;-57
2024/04/19 11:09:25;;;;;;;;;;;;;;;22.96;46.66;94109.50;5351861;26;7234;-57
2024/04/19 11:11:53;;;;;;;;;;;;;;;22.85;46.99;94080.09;5360858;26;7110;-58
2024/04/19 11:14:23;;;;;;;;;;;;;;;22.95;46.35;94086.78;5370592;26;7471;-57
2024/04/19 11:16:53;;;;;;;;;;;;;;;23.03;46.39;94085.03;5374435;26;7157;-57
2024/04/19 11:19:19;;;;;;;;;;;;;;;22.98;46.57;94076.81;5370151;26;9054;-57
2024/04/19 11:21:45;;;;;;;;;;;;;;;22.99;46.86;94073.56;5353745;26;7701;-57
2024/04/19 11:24:22;;;;;;;;;;;;;;;23.07;46.87;94091.03;5372182;26;8440;-57
2024/04/19 11:26:49;;;;;;;;;;;;;;;23.01;46.86;94062.84;5352208;26;7083;-58
2024/04/19 11:29:19;;;;;;;;;;;;;;;23.07;46.49;94073.81;5355318;26;7372;-58
2024/04/19 11:31:48;;;;;;;;;;;;;;;23.04;46.15;94069.31;5358361;26;7708;-57
2024/04/19 11:34:15;;;;;;;;;;;;;;;23.06;46.55;94064.09;5357944;26;7068;-57
2024/04/19 11:36:45;;;;;;;;;;;;;;;22.98;45.92;94054.88;5363767;26;7340;-58
2024/04/19 11:39:12;;;;;;;;;;;;;;;23.07;46.37;94063.59;5354429;26;6997;-57
2024/04/19 11:41:50;;;;;;;;;;;;;;;22.96;45.91;94049.91;5362776;26;7355;-57
2024/04/19 11:44:22;;;;;;;;;;;;;;;23.08;46.38;94062.34;5446680;26;7447;-57
2024/04/19 11:46:48;;;;;;;;;;;;;;;23.05;46.10;94046.88;5444077;26;7284;-58
2024/04/19 11:49:18;;;;;;;;;;;;;;;23.16;45.89;94059.84;5411788;26;7511;-57
2024/04/19 11:51:45;;;;;;;;;;;;;;;23.14;45.77;94045.88;5443111;26;7519;-57
2024/04/19 11:54:13;;;;;;;;;;;;;;;23.23;45.80;94042.84;5445408;26;7197;-57
2024/04/19 11:56:43;;;;;;;;;;;;;;;23.29;45.63;94051.06;5441060;26;7161;-57
2024/04/19 11:59:20;;;;;;;;;;;;;;;23.33;45.68;94043.31;5409905;26;7246;-57
2024/04/19 12:01:46;;;;;;;;;;;;;;;23.33;45.39;94030.38;5446677;26;7410;-58
2024/04/19 12:04:13;;;;;;;;;;;;;;;23.40;45.73;94029.13;5444660;26;7192;-58
2024/04/19 12:06:43;;;;;;;;;;;;;;;23.45;45.16;94042.06;5434514;26;7146;-58
2024/04/19 12:09:10;;;;;;;;;;;;;;;23.49;45.09;94037.06;5446228;26;7371;-58
2024/04/19 12:11:48;;;;;;;;;;;;;;;23.46;45.06;94033.34;5460588;26;7049;-58
2024/04/19 12:14:17;;;;;;;;;;;;;;;23.50;45.31;94033.81;5447432;26;7382;-58
2024/04/19 12:17:08;;;;;;;;;;;;;;;23.57;45.33;94043.50;5448531;26;7552;-58
2024/04/19 12:20:00;;;;;;;;;;;;;;;23.60;44.55;94031.50;5435357;26;7008;-58
2024/04/19 12:22:35;;;;;;;;;;;;;;;23.52;45.05;94031.31;5448940;26;7132;-58
2024/04/19 12:25:15;;;;;;;;;;;;;;;23.53;44.96;94032.06;5448984;26;7162;-57
2024/04/19 12:27:52;;;;;;;;;;;;;;;23.50;45.22;94022.09;5438457;26;7056;-57
2024/04/19 12:31:12;;;;;;;;;;;;;;;23.53;45.56;94034.81;5448230;26;7218;-58
2024/04/19 12:33:47;;;;;;;;;;;;;;;23.55;45.28;94019.31;5448696;26;7229;-58
2024/04/19 12:36:15;;;;;;;;;;;;;;;23.46;45.00;94014.13;5448565;26;7362;-58
2024/04/19 12:38:44;;;;;;;;;;;;;;;23.56;44.06;94025.53;5382409;26;9092;-58
2024/04/19 12:41:10;;;;;;;;;;;;;;;23.51;43.09;94005.09;5447251;26;7356;-58
2024/04/19 12:43:51;;;;;;;;;;;;;;;23.46;44.28;93994.16;5447831;26;7300;-58
2024/04/19 12:46:51;;;;;;;;;;;;;;;23.54;44.28;94025.31;5424634;26;7052;-58
2024/04/19 12:49:22;;;;;;;;;;;;;;;23.51;44.45;93994.13;5311421;26;7054;-58
2024/04/19 12:52:16;;;;;;;;;;;;;;;23.53;44.68;94015.59;5306283;26;7037;-58
2024/04/19 12:55:02;;;;;;;;;;;;;;;23.48;44.76;94019.09;5305538;27;7296;-58
2024/04/19 12:57:47;;;;;;;;;;;;;;;23.43;44.87;94009.63;5306512;26;7416;-58
2024/04/19 13:00:29;;;;;;;;;;;;;;;23.35;44.59;94005.94;5276391;26;7176;-58
2024/04/19 13:03:28;;;;;;;;;;;;;;;23.41;44.89;94011.38;5290372;27;7129;-58
2024/04/19 13:06:06;;;;;;;;;;;;;;;23.38;45.12;94001.44;5254419;27;7343;-58
2024/04/19 13:08:35;;;;;;;;;;;;;;;23.36;44.93;93998.44;5238144;27;7052;-58
2024/04/19 13:11:13;;;;;;;;;;;;;;;23.31;45.39;93999.19;5270754;27;7352;-58
2024/04/19 13:13:58;;;;;;;;;;;;;;;23.31;45.30;93988.22;5259245;27;9107;-63
2024/04/19 13:16:47;;;;;;;;;;;;;;;23.27;45.47;93993.97;5215835;27;7698;-63
2024/04/19 13:19:16;;;;;;;;;;;;;;;23.18;45.48;93978.50;5270292;27;7037;-64
2024/04/19 13:21:54;;;;;;;;;;;;;;;23.18;45.98;93964.78;5221273;27;7221;-63
2024/04/19 13:24:22;;;;;;;;;;;;;;;23.21;45.55;93976.75;5268832;27;8256;-63
2024/04/19 13:26:57;;;;;;;;;;;;;;;23.12;46.07;93958.59;5389127;26;7965;-63
2024/04/19 13:29:38;;;;;;;;;;;;;;;23.07;46.11;93951.13;5377329;26;7408;-64
2024/04/19 13:32:06;;;;;;;;;;;;;;;23.11;45.88;93954.38;5360048;26;7147;-63
2024/04/19 13:34:44;;;;;;;;;;;;;;;23.07;46.33;93951.13;5360804;26;9247;-63
2024/04/19 13:37:10;;;;;;;;;;;;;;;23.03;46.10;93975.31;5379295;26;8626;-62
2024/04/19 13:39:36;;;;;;;;;;;;;;;22.99;45.97;93944.66;5365335;26;9007;-62
2024/04/19 13:42:03;;;;;;;;;;;;;;;23.11;45.46;93950.88;5446928;26;7424;-62
2024/04/19 13:44:32;;;;;;;;;;;;;;;23.05;45.67;93928.94;5444645;26;7368;-63
2024/04/19 13:47:00;;;;;;;;;;;;;;;23.10;45.81;93938.38;5423892;26;9159;-62
2024/04/19 13:49:32;;;;;;;;;;;;;;;23.09;45.68;93923.19;5443243;26;7383;-62
2024/04/19 13:51:58;;;;;;;;;;;;;;;23.04;45.76;93915.72;5444961;26;7656;-63
2024/04/19 13:54:26;;;;;;;;;;;;;;;23.02;45.35;93912.75;5400746;26;8725;-62